KCNY/CNY METAR and TAF weather

Enter ICAO airport designator
Station Type Date Time Source
KCNY METAR 2019/12/13 00:53 UTC NOAA

KCNY 130053Z AUTO 33004KT 10SM CLR 02/M02 A3016 RMK AO2 SLP235 T00171017


Station Type Date Time Source
KCNY Decoded METAR 2019/12/13 00:53 UTC NOAA

MOAB CANYONLANDS FIELD, UT, United States (KCNY) 38-46N 109-45W 1390M
Dec 12, 2019 - 07:53 PM EST / 2019.12.13 0053 UTC
Wind: from the NNW (330 degrees) at 5 MPH (4 KT):0
Visibility: 10 mile(s):0
Sky conditions: clear
Temperature: 35.1 F (1.7 C)
Dew Point: 28.9 F (-1.7 C)
Relative Humidity: 78%
Pressure (altimeter): 30.16 in. Hg (1021 hPa)
ob: KCNY 130053Z AUTO 33004KT 10SM CLR 02/M02 A3016 RMK AO2 SLP235 T00171017
cycle: 1

Station Type Date Time Source
KCNY TAF 2019/12/12 18:42 UTC NOAA

TAF
AMD KCNY 121740Z 1218/1318 VRB04KT P6SM FEW150
FM122100 VRB04KT P6SM FEW080 FEW120
FM130600 VRB03KT P6SM SCT060 BKN120
FM131200 00000KT P6SM FEW060 SCT150
FM131700 VRB04KT P6SM FEW060 SCT100

Example: see airport list